sensor_id;sensor_type;location;lat;lon;timestamp;pressure;altitude;pressure_sealevel;temperature;humidity
43804;BME280;29430;52.924;-2.388;2024-03-17T00:01:41;99055.84;;;9.65;100.00
43804;BME280;29430;52.924;-2.388;2024-03-17T00:06:31;99050.56;;;9.71;100.00
43804;BME280;29430;52.924;-2.388;2024-03-17T00:11:22;99045.53;;;9.74;100.00
43804;BME280;29430;52.924;-2.388;2024-03-17T00:16:13;99046.94;;;9.77;100.00
43804;BME280;29430;52.924;-2.388;2024-03-17T00:21:04;99044.25;;;9.77;100.00
43804;BME280;29430;52.924;-2.388;2024-03-17T00:25:55;99026.94;;;9.78;100.00
43804;BME280;29430;52.924;-2.388;2024-03-17T00:30:46;99026.94;;;9.78;100.00
43804;BME280;29430;52.924;-2.388;2024-03-17T00:35:36;99029.44;;;9.79;100.00
43804;BME280;29430;52.924;-2.388;2024-03-17T00:40:27;99021.06;;;9.81;100.00
43804;BME280;29430;52.924;-2.388;2024-03-17T00:45:18;99020.84;;;9.82;100.00
43804;BME280;29430;52.924;-2.388;2024-03-17T00:50:09;99023.31;;;9.84;100.00
43804;BME280;29430;52.924;-2.388;2024-03-17T00:55:02;99010.38;;;9.86;100.00
43804;BME280;29430;52.924;-2.388;2024-03-17T00:59:52;99011.19;;;9.86;100.00
43804;BME280;29430;52.924;-2.388;2024-03-17T01:04:43;99004.47;;;9.89;100.00
43804;BME280;29430;52.924;-2.388;2024-03-17T01:09:34;99004.47;;;9.89;100.00
43804;BME280;29430;52.924;-2.388;2024-03-17T01:14:24;98996.34;;;9.89;100.00
43804;BME280;29430;52.924;-2.388;2024-03-17T01:19:15;98985.28;;;9.91;100.00
43804;BME280;29430;52.924;-2.388;2024-03-17T01:24:06;99008.16;;;9.95;100.00
43804;BME280;29430;52.924;-2.388;2024-03-17T01:28:56;98998.38;;;9.94;100.00
43804;BME280;29430;52.924;-2.388;2024-03-17T01:33:47;98980.84;;;9.96;100.00
43804;BME280;29430;52.924;-2.388;2024-03-17T01:38:38;98974.97;;;9.99;100.00
43804;BME280;29430;52.924;-2.388;2024-03-17T01:43:28;98969.06;;;10.02;100.00
43804;BME280;29430;52.924;-2.388;2024-03-17T01:48:19;98972.94;;;10.07;100.00
43804;BME280;29430;52.924;-2.388;2024-03-17T01:53:11;98965.91;;;10.06;100.00
43804;BME280;29430;52.924;-2.388;2024-03-17T01:58:04;98966.25;;;10.09;100.00
43804;BME280;29430;52.924;-2.388;2024-03-17T02:02:58;98963.78;;;10.08;100.00
43804;BME280;29430;52.924;-2.388;2024-03-17T02:07:48;98956.84;;;10.12;100.00
43804;BME280;29430;52.924;-2.388;2024-03-17T02:12:40;98939.97;;;10.10;100.00
43804;BME280;29430;52.924;-2.388;2024-03-17T02:17:32;98936.22;;;10.11;100.00
43804;BME280;29430;52.924;-2.388;2024-03-17T02:22:22;98929.75;;;10.12;100.00
43804;BME280;29430;52.924;-2.388;2024-03-17T02:27:14;98938.44;;;10.14;100.00
43804;BME280;29430;52.924;-2.388;2024-03-17T02:32:06;98921.97;;;10.15;100.00
43804;BME280;29430;52.924;-2.388;2024-03-17T02:36:57;98916.53;;;10.15;100.00
43804;BME280;29430;52.924;-2.388;2024-03-17T02:41:48;98908.19;;;10.17;100.00
43804;BME280;29430;52.924;-2.388;2024-03-17T02:46:39;98904.41;;;10.18;100.00
43804;BME280;29430;52.924;-2.388;2024-03-17T02:51:30;98893.56;;;10.18;100.00
43804;BME280;29430;52.924;-2.388;2024-03-17T02:56:21;98887.31;;;10.17;100.00
43804;BME280;29430;52.924;-2.388;2024-03-17T03:01:12;98887.91;;;10.19;100.00
43804;BME280;29430;52.924;-2.388;2024-03-17T03:06:03;98884.75;;;10.23;100.00
43804;BME280;29430;52.924;-2.388;2024-03-17T03:11:02;98876.25;;;10.19;100.00
43804;BME280;29430;52.924;-2.388;2024-03-17T03:15:52;98874.38;;;10.19;100.00
43804;BME280;29430;52.924;-2.388;2024-03-17T03:20:50;98866.81;;;10.21;100.00
43804;BME280;29430;52.924;-2.388;2024-03-17T03:25:41;98863.28;;;10.21;100.00
43804;BME280;29430;52.924;-2.388;2024-03-17T03:30:35;98860.59;;;10.21;100.00
43804;BME280;29430;52.924;-2.388;2024-03-17T03:35:28;98855.97;;;10.21;100.00
43804;BME280;29430;52.924;-2.388;2024-03-17T03:40:18;98850.31;;;10.23;100.00
43804;BME280;29430;52.924;-2.388;2024-03-17T03:45:10;98865.16;;;10.20;100.00
43804;BME280;29430;52.924;-2.388;2024-03-17T03:50:04;98845.13;;;10.21;100.00
43804;BME280;29430;52.924;-2.388;2024-03-17T03:54:55;98842.66;;;10.20;100.00
43804;BME280;29430;52.924;-2.388;2024-03-17T03:59:46;98843.47;;;10.20;100.00
43804;BME280;29430;52.924;-2.388;2024-03-17T04:04:36;98834.31;;;10.21;100.00
43804;BME280;29430;52.924;-2.388;2024-03-17T04:09:28;98835.13;;;10.22;100.00
43804;BME280;29430;52.924;-2.388;2024-03-17T04:14:19;98820.50;;;10.23;100.00
43804;BME280;29430;52.924;-2.388;2024-03-17T04:19:10;98836.78;;;10.23;100.00
43804;BME280;29430;52.924;-2.388;2024-03-17T04:24:01;98822.41;;;10.23;100.00
43804;BME280;29430;52.924;-2.388;2024-03-17T04:28:51;98814.28;;;10.23;100.00
43804;BME280;29430;52.924;-2.388;2024-03-17T04:33:43;98816.75;;;10.24;100.00
43804;BME280;29430;52.924;-2.388;2024-03-17T04:38:33;98820.75;;;10.21;100.00
43804;BME280;29430;52.924;-2.388;2024-03-17T04:43:24;98827.22;;;10.20;100.00
43804;BME280;29430;52.924;-2.388;2024-03-17T04:48:15;98818.84;;;10.22;100.00
43804;BME280;29430;52.924;-2.388;2024-03-17T04:53:05;98821.56;;;10.22;100.00
43804;BME280;29430;52.924;-2.388;2024-03-17T04:57:56;98811.81;;;10.21;100.00
43804;BME280;29430;52.924;-2.388;2024-03-17T05:02:47;98804.72;;;10.20;100.00
43804;BME280;29430;52.924;-2.388;2024-03-17T05:07:38;98808.00;;;10.22;100.00
43804;BME280;29430;52.924;-2.388;2024-03-17T05:12:29;98808.00;;;10.22;100.00
43804;BME280;29430;52.924;-2.388;2024-03-17T05:17:20;98805.53;;;10.20;100.00
43804;BME280;29430;52.924;-2.388;2024-03-17T05:22:10;98804.38;;;10.16;100.00
43804;BME280;29430;52.924;-2.388;2024-03-17T05:27:01;98803.78;;;10.14;100.00
43804;BME280;29430;52.924;-2.388;2024-03-17T05:31:52;98804.25;;;10.11;100.00
43804;BME280;29430;52.924;-2.388;2024-03-17T05:36:42;98799.06;;;10.10;100.00
43804;BME280;29430;52.924;-2.388;2024-03-17T05:41:33;98799.31;;;10.08;100.00
43804;BME280;29430;52.924;-2.388;2024-03-17T05:46:25;98799.56;;;10.07;100.00
43804;BME280;29430;52.924;-2.388;2024-03-17T05:51:18;98788.13;;;10.04;100.00
43804;BME280;29430;52.924;-2.388;2024-03-17T05:56:09;98774.50;;;9.99;100.00
43804;BME280;29430;52.924;-2.388;2024-03-17T06:01:02;98784.47;;;9.99;100.00
43804;BME280;29430;52.924;-2.388;2024-03-17T06:05:53;98790.13;;;9.97;100.00
43804;BME280;29430;52.924;-2.388;2024-03-17T06:10:45;98779.06;;;9.99;100.00
43804;BME280;29430;52.924;-2.388;2024-03-17T06:15:37;98784.72;;;9.97;100.00
43804;BME280;29430;52.924;-2.388;2024-03-17T06:20:29;98785.56;;;9.98;100.00
43804;BME280;29430;52.924;-2.388;2024-03-17T06:25:19;98785.31;;;9.99;100.00
43804;BME280;29430;52.924;-2.388;2024-03-17T06:30:14;98780.72;;;10.00;100.00
43804;BME280;29430;52.924;-2.388;2024-03-17T06:35:05;98788.84;;;10.00;100.00
43804;BME280;29430;52.924;-2.388;2024-03-17T06:39:55;98775.78;;;9.97;100.00
43804;BME280;29430;52.924;-2.388;2024-03-17T06:44:46;98775.53;;;9.98;100.00
43804;BME280;29430;52.924;-2.388;2024-03-17T06:49:37;98775.31;;;10.00;100.00
43804;BME280;29430;52.924;-2.388;2024-03-17T06:54:28;98765.28;;;10.00;100.00
43804;BME280;29430;52.924;-2.388;2024-03-17T06:59:18;98770.00;;;10.05;100.00
43804;BME280;29430;52.924;-2.388;2024-03-17T07:04:11;98761.63;;;10.07;100.00
43804;BME280;29430;52.924;-2.388;2024-03-17T07:09:02;98761.53;;;10.01;100.00
43804;BME280;29430;52.924;-2.388;2024-03-17T07:13:52;98756.91;;;10.02;100.00
43804;BME280;29430;52.924;-2.388;2024-03-17T07:18:43;98764.56;;;10.05;100.00
43804;BME280;29430;52.924;-2.388;2024-03-17T07:23:36;98780.59;;;10.07;100.00
43804;BME280;29430;52.924;-2.388;2024-03-17T07:28:27;98786.59;;;10.09;100.00
43804;BME280;29430;52.924;-2.388;2024-03-17T07:33:18;98770.34;;;10.09;100.00
43804;BME280;29430;52.924;-2.388;2024-03-17T07:38:10;98754.09;;;10.09;100.00
43804;BME280;29430;52.924;-2.388;2024-03-17T07:43:01;98744.31;;;10.08;100.00
43804;BME280;29430;52.924;-2.388;2024-03-17T07:47:51;98730.84;;;10.13;100.00
43804;BME280;29430;52.924;-2.388;2024-03-17T07:52:42;98708.94;;;10.14;100.00
43804;BME280;29430;52.924;-2.388;2024-03-17T07:57:33;98698.34;;;10.13;100.00
43804;BME280;29430;52.924;-2.388;2024-03-17T08:02:23;98707.66;;;10.17;100.00
43804;BME280;29430;52.924;-2.388;2024-03-17T08:07:14;98727.44;;;10.17;100.00
43804;BME280;29430;52.924;-2.388;2024-03-17T08:12:05;98715.31;;;10.20;100.00
43804;BME280;29430;52.924;-2.388;2024-03-17T08:16:56;98709.41;;;10.23;100.00
43804;BME280;29430;52.924;-2.388;2024-03-17T08:21:46;98724.59;;;10.24;100.00
43804;BME280;29430;52.924;-2.388;2024-03-17T08:26:37;98730.59;;;10.26;100.00
43804;BME280;29430;52.924;-2.388;2024-03-17T08:31:28;98740.63;;;10.26;100.00
43804;BME280;29430;52.924;-2.388;2024-03-17T08:36:19;98761.22;;;10.27;100.00
43804;BME280;29430;52.924;-2.388;2024-03-17T08:41:10;98747.19;;;10.30;100.00
43804;BME280;29430;52.924;-2.388;2024-03-17T08:46:03;98749.22;;;10.34;100.00
43804;BME280;29430;52.924;-2.388;2024-03-17T08:50:55;98767.84;;;10.43;100.00
43804;BME280;29430;52.924;-2.388;2024-03-17T08:55:46;98760.38;;;10.50;100.00
43804;BME280;29430;52.924;-2.388;2024-03-17T09:00:37;98776.25;;;10.58;100.00
43804;BME280;29430;52.924;-2.388;2024-03-17T09:05:27;98775.53;;;10.63;100.00
43804;BME280;29430;52.924;-2.388;2024-03-17T09:10:18;98779.00;;;10.75;100.00
43804;BME280;29430;52.924;-2.388;2024-03-17T09:15:10;98773.53;;;10.87;100.00
43804;BME280;29430;52.924;-2.388;2024-03-17T09:20:07;98778.53;;;11.07;100.00
43804;BME280;29430;52.924;-2.388;2024-03-17T09:25:06;98779.09;;;11.26;100.00
43804;BME280;29430;52.924;-2.388;2024-03-17T09:30:00;98790.81;;;11.43;100.00
43804;BME280;29430;52.924;-2.388;2024-03-17T09:34:51;98788.75;;;11.51;100.00
43804;BME280;29430;52.924;-2.388;2024-03-17T09:39:42;98786.13;;;11.56;100.00
43804;BME280;29430;52.924;-2.388;2024-03-17T09:44:35;98786.38;;;11.54;100.00
43804;BME280;29430;52.924;-2.388;2024-03-17T09:49:27;98787.03;;;11.61;100.00
43804;BME280;29430;52.924;-2.388;2024-03-17T09:54:19;98777.97;;;11.73;100.00
43804;BME280;29430;52.924;-2.388;2024-03-17T09:59:09;98779.78;;;12.01;100.00
43804;BME280;29430;52.924;-2.388;2024-03-17T10:04:00;98773.59;;;12.28;100.00
43804;BME280;29430;52.924;-2.388;2024-03-17T10:09:00;98781.69;;;12.45;100.00
43804;BME280;29430;52.924;-2.388;2024-03-17T10:14:05;98779.53;;;12.69;100.00
43804;BME280;29430;52.924;-2.388;2024-03-17T10:19:25;98772.53;;;12.73;100.00
43804;BME280;29430;52.924;-2.388;2024-03-17T10:24:25;98778.53;;;12.75;100.00
43804;BME280;29430;52.924;-2.388;2024-03-17T10:29:27;98764.19;;;12.85;100.00
43804;BME280;29430;52.924;-2.388;2024-03-17T10:34:20;98766.00;;;13.01;100.00
43804;BME280;29430;52.924;-2.388;2024-03-17T10:39:26;98769.16;;;13.20;100.00
43804;BME280;29430;52.924;-2.388;2024-03-17T10:44:19;98766.69;;;13.46;100.00
43804;BME280;29430;52.924;-2.388;2024-03-17T10:49:11;98763.13;;;13.78;100.00
43804;BME280;29430;52.924;-2.388;2024-03-17T10:54:04;98759.06;;;14.33;100.00
43804;BME280;29430;52.924;-2.388;2024-03-17T10:58:55;98759.06;;;15.28;100.00
43804;BME280;29430;52.924;-2.388;2024-03-17T11:03:49;98757.97;;;15.80;100.00
43804;BME280;29430;52.924;-2.388;2024-03-17T11:08:42;98782.75;;;16.30;100.00
43804;BME280;29430;52.924;-2.388;2024-03-17T11:13:36;98783.47;;;16.51;99.04
43804;BME280;29430;52.924;-2.388;2024-03-17T11:18:33;98788.75;;;16.27;98.41
43804;BME280;29430;52.924;-2.388;2024-03-17T11:23:31;98789.09;;;16.00;96.78
43804;BME280;29430;52.924;-2.388;2024-03-17T11:49:21;98776.81;;;15.92;99.63
43804;BME280;29430;52.924;-2.388;2024-03-17T11:54:17;98780.63;;;15.96;98.61
43804;BME280;29430;52.924;-2.388;2024-03-17T11:59:09;98776.78;;;15.97;98.64
43804;BME280;29430;52.924;-2.388;2024-03-17T12:04:01;98768.91;;;15.80;95.81
43804;BME280;29430;52.924;-2.388;2024-03-17T12:09:18;98762.88;;;15.73;99.05
43804;BME280;29430;52.924;-2.388;2024-03-17T12:14:18;98761.78;;;15.79;99.19
43804;BME280;29430;52.924;-2.388;2024-03-17T12:19:10;98756.59;;;15.83;98.58
43804;BME280;29430;52.924;-2.388;2024-03-17T12:24:01;98762.56;;;16.05;96.46
43804;BME280;29430;52.924;-2.388;2024-03-17T12:28:52;98750.19;;;16.18;93.07
43804;BME280;29430;52.924;-2.388;2024-03-17T12:33:43;98754.88;;;16.07;92.91
43804;BME280;29430;52.924;-2.388;2024-03-17T12:38:35;98758.75;;;15.96;93.08
43804;BME280;29430;52.924;-2.388;2024-03-17T12:43:25;98761.78;;;15.79;94.00
43804;BME280;29430;52.924;-2.388;2024-03-17T12:48:17;98767.50;;;15.67;94.76
43804;BME280;29430;52.924;-2.388;2024-03-17T12:53:15;98763.69;;;15.63;97.32
43804;BME280;29430;52.924;-2.388;2024-03-17T12:58:09;98762.88;;;15.73;96.95
43804;BME280;29430;52.924;-2.388;2024-03-17T13:03:24;98754.94;;;15.82;93.79
43804;BME280;29430;52.924;-2.388;2024-03-17T13:08:15;98743.16;;;15.86;88.50
43804;BME280;29430;52.924;-2.388;2024-03-17T13:13:08;98737.97;;;15.90;86.37
43804;BME280;29430;52.924;-2.388;2024-03-17T13:17:59;98724.00;;;16.07;86.27
43804;BME280;29430;52.924;-2.388;2024-03-17T13:22:50;98722.81;;;16.23;87.39
43804;BME280;29430;52.924;-2.388;2024-03-17T13:27:41;98724.44;;;16.29;80.28
43804;BME280;29430;52.924;-2.388;2024-03-17T13:32:32;98723.59;;;16.34;76.83
43804;BME280;29430;52.924;-2.388;2024-03-17T13:37:23;98719.19;;;16.38;76.27
43804;BME280;29430;52.924;-2.388;2024-03-17T13:42:13;98728.78;;;16.41;75.52
43804;BME280;29430;52.924;-2.388;2024-03-17T13:47:05;98720.06;;;16.28;76.75
43804;BME280;29430;52.924;-2.388;2024-03-17T13:51:56;98701.75;;;16.24;77.86
43804;BME280;29430;52.924;-2.388;2024-03-17T13:56:48;98705.91;;;16.16;77.60
43804;BME280;29430;52.924;-2.388;2024-03-17T14:01:38;98708.41;;;16.02;79.98
43804;BME280;29430;52.924;-2.388;2024-03-17T14:06:30;98707.06;;;15.89;79.36
43804;BME280;29430;52.924;-2.388;2024-03-17T14:11:22;98699.13;;;15.88;79.31
43804;BME280;29430;52.924;-2.388;2024-03-17T14:16:12;98679.75;;;15.79;80.35
43804;BME280;29430;52.924;-2.388;2024-03-17T14:21:04;98692.06;;;15.71;79.90
43804;BME280;29430;52.924;-2.388;2024-03-17T14:25:55;98694.28;;;15.59;82.88
43804;BME280;29430;52.924;-2.388;2024-03-17T14:30:47;98703.84;;;15.51;82.42
43804;BME280;29430;52.924;-2.388;2024-03-17T14:35:38;98711.22;;;15.46;84.83
43804;BME280;29430;52.924;-2.388;2024-03-17T14:40:29;98695.38;;;15.48;81.08
43804;BME280;29430;52.924;-2.388;2024-03-17T14:45:20;98701.13;;;15.31;80.21
43804;BME280;29430;52.924;-2.388;2024-03-17T14:50:14;98697.88;;;15.18;82.01
43804;BME280;29430;52.924;-2.388;2024-03-17T14:55:07;98707.97;;;15.08;82.86
43804;BME280;29430;52.924;-2.388;2024-03-17T15:00:01;98689.38;;;14.99;83.05
43804;BME280;29430;52.924;-2.388;2024-03-17T15:04:52;98688.84;;;14.97;82.76
43804;BME280;29430;52.924;-2.388;2024-03-17T15:09:43;98687.19;;;14.91;81.99
43804;BME280;29430;52.924;-2.388;2024-03-17T15:14:34;98695.38;;;14.91;84.61
43804;BME280;29430;52.924;-2.388;2024-03-17T15:19:25;98693.22;;;14.98;84.86
43804;BME280;29430;52.924;-2.388;2024-03-17T15:24:15;98691.56;;;14.97;84.32
43804;BME280;29430;52.924;-2.388;2024-03-17T15:29:06;98702.75;;;15.01;85.79
43804;BME280;29430;52.924;-2.388;2024-03-17T15:33:57;98694.84;;;14.99;86.03
43804;BME280;29430;52.924;-2.388;2024-03-17T15:38:48;98690.47;;;14.93;82.89
43804;BME280;29430;52.924;-2.388;2024-03-17T15:43:40;98698.91;;;14.71;82.08
43804;BME280;29430;52.924;-2.388;2024-03-17T15:48:32;98714.44;;;14.65;84.45
43804;BME280;29430;52.924;-2.388;2024-03-17T15:53:23;98715.47;;;14.54;85.04
43804;BME280;29430;52.924;-2.388;2024-03-17T15:58:14;98715.22;;;14.50;83.86
43804;BME280;29430;52.924;-2.388;2024-03-17T16:03:04;98702.31;;;14.36;84.93
43804;BME280;29430;52.924;-2.388;2024-03-17T16:07:55;98737.78;;;14.30;88.33
43804;BME280;29430;52.924;-2.388;2024-03-17T16:12:47;98744.50;;;14.07;90.54
43804;BME280;29430;52.924;-2.388;2024-03-17T16:17:38;98750.34;;;13.84;92.83
43804;BME280;29430;52.924;-2.388;2024-03-17T16:22:29;98755.13;;;13.66;96.10
43804;BME280;29430;52.924;-2.388;2024-03-17T16:27:21;98744.16;;;13.56;96.63
43804;BME280;29430;52.924;-2.388;2024-03-17T16:32:11;98747.88;;;13.39;98.63
43804;BME280;29430;52.924;-2.388;2024-03-17T16:37:02;98748.53;;;13.30;98.84
43804;BME280;29430;52.924;-2.388;2024-03-17T16:41:53;98746.53;;;13.15;100.00
43804;BME280;29430;52.924;-2.388;2024-03-17T16:52:27;98757.03;;;13.01;100.00
43804;BME280;29430;52.924;-2.388;2024-03-17T16:57:18;98757.78;;;12.96;100.00
43804;BME280;29430;52.924;-2.388;2024-03-17T17:02:14;98764.00;;;12.92;100.00
43804;BME280;29430;52.924;-2.388;2024-03-17T17:07:04;98774.47;;;12.78;100.00
43804;BME280;29430;52.924;-2.388;2024-03-17T17:11:56;98771.06;;;12.65;97.21
43804;BME280;29430;52.924;-2.388;2024-03-17T17:16:47;98782.63;;;12.56;96.29
43804;BME280;29430;52.924;-2.388;2024-03-17T17:21:38;98779.31;;;12.48;95.05
43804;BME280;29430;52.924;-2.388;2024-03-17T17:26:29;98782.78;;;12.44;93.32
43804;BME280;29430;52.924;-2.388;2024-03-17T17:31:25;98783.22;;;12.35;92.99
43804;BME280;29430;52.924;-2.388;2024-03-17T17:36:16;98788.84;;;12.29;93.24
43804;BME280;29430;52.924;-2.388;2024-03-17T17:41:07;98781.19;;;12.26;92.61
43804;BME280;29430;52.924;-2.388;2024-03-17T17:46:05;98796.94;;;12.24;92.94
43804;BME280;29430;52.924;-2.388;2024-03-17T17:50:56;98792.00;;;12.21;91.84
43804;BME280;29430;52.924;-2.388;2024-03-17T17:55:47;98794.31;;;12.12;92.26
43804;BME280;29430;52.924;-2.388;2024-03-17T18:00:38;98791.78;;;12.05;92.26
43804;BME280;29430;52.924;-2.388;2024-03-17T18:05:29;98800.69;;;12.00;92.33
43804;BME280;29430;52.924;-2.388;2024-03-17T18:10:20;98809.59;;;11.96;91.42
43804;BME280;29430;52.924;-2.388;2024-03-17T18:15:11;98819.28;;;11.92;91.49
43804;BME280;29430;52.924;-2.388;2024-03-17T18:20:02;98821.94;;;11.87;90.12
43804;BME280;29430;52.924;-2.388;2024-03-17T18:24:56;98821.59;;;11.83;91.20
43804;BME280;29430;52.924;-2.388;2024-03-17T18:29:48;98807.94;;;11.78;88.84
43804;BME280;29430;52.924;-2.388;2024-03-17T18:34:39;98815.66;;;11.69;86.68
43804;BME280;29430;52.924;-2.388;2024-03-17T18:39:30;98826.38;;;11.59;84.77
43804;BME280;29430;52.924;-2.388;2024-03-17T18:44:22;98829.97;;;11.47;82.96
43804;BME280;29430;52.924;-2.388;2024-03-17T18:49:12;98825.38;;;11.31;78.22
43804;BME280;29430;52.924;-2.388;2024-03-17T18:54:03;98826.72;;;11.17;76.37
43804;BME280;29430;52.924;-2.388;2024-03-17T18:58:54;98828.34;;;11.01;74.54
43804;BME280;29430;52.924;-2.388;2024-03-17T19:03:44;98825.34;;;10.85;75.38
43804;BME280;29430;52.924;-2.388;2024-03-17T19:08:35;98827.03;;;10.74;75.31
43804;BME280;29430;52.924;-2.388;2024-03-17T19:13:26;98838.75;;;10.63;76.87
43804;BME280;29430;52.924;-2.388;2024-03-17T19:18:17;98834.75;;;10.54;78.30
43804;BME280;29430;52.924;-2.388;2024-03-17T19:23:08;98841.59;;;10.45;77.42
43804;BME280;29430;52.924;-2.388;2024-03-17T19:27:59;98845.50;;;10.37;78.10
43804;BME280;29430;52.924;-2.388;2024-03-17T19:32:49;98842.78;;;10.25;77.58
43804;BME280;29430;52.924;-2.388;2024-03-17T19:37:40;98850.69;;;10.15;78.69
43804;BME280;29430;52.924;-2.388;2024-03-17T19:42:31;98839.47;;;10.11;80.14
43804;BME280;29430;52.924;-2.388;2024-03-17T19:47:21;98845.38;;;10.08;80.54
43804;BME280;29430;52.924;-2.388;2024-03-17T19:52:13;98842.78;;;10.01;81.26
43804;BME280;29430;52.924;-2.388;2024-03-17T19:57:04;98840.78;;;9.97;83.19
43804;BME280;29430;52.924;-2.388;2024-03-17T20:01:55;98842.06;;;9.94;83.27
43804;BME280;29430;52.924;-2.388;2024-03-17T20:06:46;98844.44;;;9.91;84.83
43804;BME280;29430;52.924;-2.388;2024-03-17T20:11:36;98841.25;;;9.82;84.83
43804;BME280;29430;52.924;-2.388;2024-03-17T20:16:27;98828.53;;;9.71;85.60
43804;BME280;29430;52.924;-2.388;2024-03-17T20:21:22;98822.84;;;9.60;85.88
43804;BME280;29430;52.924;-2.388;2024-03-17T20:26:13;98827.09;;;9.56;86.52
43804;BME280;29430;52.924;-2.388;2024-03-17T20:31:07;98831.91;;;9.54;86.83
43804;BME280;29430;52.924;-2.388;2024-03-17T20:36:00;98830.97;;;9.48;86.32
43804;BME280;29430;52.924;-2.388;2024-03-17T20:40:51;98846.13;;;9.38;86.87
43804;BME280;29430;52.924;-2.388;2024-03-17T20:45:41;98839.41;;;9.28;87.24
43804;BME280;29430;52.924;-2.388;2024-03-17T20:50:32;98822.09;;;9.18;88.35
43804;BME280;29430;52.924;-2.388;2024-03-17T20:55:23;98831.25;;;9.17;89.39
43804;BME280;29430;52.924;-2.388;2024-03-17T21:00:22;98825.03;;;9.16;89.52
43804;BME280;29430;52.924;-2.388;2024-03-17T21:05:20;98827.34;;;9.12;90.75
43804;BME280;29430;52.924;-2.388;2024-03-17T21:10:12;98835.22;;;9.14;90.28
43804;BME280;29430;52.924;-2.388;2024-03-17T21:15:03;98831.34;;;9.10;90.02
43804;BME280;29430;52.924;-2.388;2024-03-17T21:19:54;98827.91;;;9.03;90.27
43804;BME280;29430;52.924;-2.388;2024-03-17T21:24:45;98833.31;;;9.03;90.35
43804;BME280;29430;52.924;-2.388;2024-03-17T21:29:37;98830.84;;;9.01;89.62
43804;BME280;29430;52.924;-2.388;2024-03-17T21:34:28;98811.78;;;8.96;90.02
43804;BME280;29430;52.924;-2.388;2024-03-17T21:39:19;98824.44;;;8.95;90.29
43804;BME280;29430;52.924;-2.388;2024-03-17T21:44:10;98831.53;;;8.96;90.07
43804;BME280;29430;52.924;-2.388;2024-03-17T21:49:00;98828.81;;;8.96;90.25
43804;BME280;29430;52.924;-2.388;2024-03-17T21:53:52;98825.38;;;8.89;90.33
43804;BME280;29430;52.924;-2.388;2024-03-17T21:58:43;98828.69;;;8.91;90.04
43804;BME280;29430;52.924;-2.388;2024-03-17T22:03:34;98828.69;;;8.91;89.97
43804;BME280;29430;52.924;-2.388;2024-03-17T22:08:25;98831.41;;;8.91;89.73
43804;BME280;29430;52.924;-2.388;2024-03-17T22:13:16;98824.19;;;8.85;90.00
43804;BME280;29430;52.924;-2.388;2024-03-17T22:18:07;98840.66;;;8.84;91.59
43804;BME280;29430;52.924;-2.388;2024-03-17T22:22:57;98836.50;;;8.81;93.74
43804;BME280;29430;52.924;-2.388;2024-03-17T22:27:48;98823.44;;;8.78;94.79
43804;BME280;29430;52.924;-2.388;2024-03-17T22:32:39;98817.00;;;8.79;96.42
43804;BME280;29430;52.924;-2.388;2024-03-17T22:37:29;98817.91;;;8.73;97.18
43804;BME280;29430;52.924;-2.388;2024-03-17T22:42:21;98824.13;;;8.73;97.78
43804;BME280;29430;52.924;-2.388;2024-03-17T22:47:11;98816.94;;;8.67;98.70
43804;BME280;29430;52.924;-2.388;2024-03-17T22:52:03;98814.91;;;8.63;99.09
43804;BME280;29430;52.924;-2.388;2024-03-17T22:56:55;98811.47;;;8.55;99.99
43804;BME280;29430;52.924;-2.388;2024-03-17T23:01:46;98817.94;;;8.54;100.00
43804;BME280;29430;52.924;-2.388;2024-03-17T23:06:37;98813.22;;;8.50;100.00
43804;BME280;29430;52.924;-2.388;2024-03-17T23:11:27;98813.66;;;8.47;100.00
43804;BME280;29430;52.924;-2.388;2024-03-17T23:16:18;98811.59;;;8.42;100.00
43804;BME280;29430;52.924;-2.388;2024-03-17T23:21:09;98816.03;;;8.36;100.00
43804;BME280;29430;52.924;-2.388;2024-03-17T23:26:00;98814.59;;;8.34;100.00
43804;BME280;29430;52.924;-2.388;2024-03-17T23:30:51;98814.00;;;8.32;100.00
43804;BME280;29430;52.924;-2.388;2024-03-17T23:35:45;98824.44;;;8.28;100.00
43804;BME280;29430;52.924;-2.388;2024-03-17T23:40:41;98828.84;;;8.22;100.00
43804;BME280;29430;52.924;-2.388;2024-03-17T23:45:31;98821.56;;;8.23;100.00
43804;BME280;29430;52.924;-2.388;2024-03-17T23:50:22;98818.94;;;8.16;100.00
43804;BME280;29430;52.924;-2.388;2024-03-17T23:55:14;98818.38;;;8.14;100.00
